WZZ5464 EDLW-EGGW
Flight info
| Callsign | WZZ5464 |
|---|---|
| Flight time | 1h 0m |
| Altitude | 32000 |
| Route | DOMEG3Q DOMEG N853 HMM L602 FLEVO L980 IDRID M40 RINIS |
| Aircraft | A320/M-SDE1E2E3FGIJ1J4RWXY/LB1 |
Departure
| Time | 2026-04-30 12:30 |
|---|---|
| Airport | Dortmund Airport (EDLW) |
Arrival
| Time | 2026-04-30 13:30 |
|---|---|
| Airport | London Luton Airport (EGGW) |
| Time | Latitude | Longitude | Altitude | Speed | Heading |
|---|---|---|---|---|---|
| 2026-04-30 12:18 | 51.51664 | 7.61519 | 420 ft | 0 kts | 332° |
| 2026-04-30 12:26 | 51.51665 | 7.61518 | 434 ft | 2 kts | 332° |
| 2026-04-30 12:26 | 51.51700 | 7.61486 | 431 ft | 10 kts | 324° |
| 2026-04-30 12:27 | 51.51694 | 7.61370 | 423 ft | 13 kts | 239° |
| 2026-04-30 12:27 | 51.51645 | 7.61238 | 424 ft | 15 kts | 239° |
| 2026-04-30 12:27 | 51.51589 | 7.61084 | 423 ft | 17 kts | 244° |
| 2026-04-30 12:27 | 51.51534 | 7.60897 | 420 ft | 21 kts | 240° |
| 2026-04-30 12:28 | 51.51454 | 7.60663 | 416 ft | 22 kts | 240° |
| 2026-04-30 12:28 | 51.51377 | 7.60438 | 415 ft | 25 kts | 242° |
| 2026-04-30 12:28 | 51.51443 | 7.60249 | 412 ft | 19 kts | 351° |
| 2026-04-30 12:28 | 51.51512 | 7.60317 | 413 ft | 3 kts | 54° |
| 2026-04-30 12:29 | 51.51521 | 7.60339 | 414 ft | 1 kts | 57° |
| 2026-04-30 12:29 | 51.51555 | 7.60434 | 414 ft | 36 kts | 60° |
| 2026-04-30 12:29 | 51.51794 | 7.61117 | 413 ft | 101 kts | 60° |
| 2026-04-30 12:29 | 51.52232 | 7.62311 | 483 ft | 143 kts | 60° |
| 2026-04-30 12:30 | 51.52745 | 7.63792 | 889 ft | 154 kts | 64° |
| 2026-04-30 12:30 | 51.53238 | 7.65328 | 1496 ft | 161 kts | 63° |
| 2026-04-30 12:30 | 51.53782 | 7.66856 | 2368 ft | 151 kts | 63° |
| 2026-04-30 12:30 | 51.54296 | 7.68177 | 3223 ft | 135 kts | 64° |
| 2026-04-30 12:31 | 51.54784 | 7.69565 | 3549 ft | 152 kts | 65° |
| 2026-04-30 12:31 | 51.55333 | 7.71172 | 3837 ft | 176 kts | 65° |
| 2026-04-30 12:31 | 51.55966 | 7.73013 | 4244 ft | 200 kts | 66° |
| 2026-04-30 12:31 | 51.56977 | 7.74779 | 4660 ft | 236 kts | 38° |
| 2026-04-30 12:32 | 51.58644 | 7.75667 | 4948 ft | 272 kts | 7° |
| 2026-04-30 12:32 | 51.60517 | 7.74934 | 4981 ft | 288 kts | 332° |
| 2026-04-30 12:32 | 51.62120 | 7.72953 | 4989 ft | 293 kts | 319° |
| 2026-04-30 12:32 | 51.63560 | 7.70590 | 5220 ft | 301 kts | 314° |
| 2026-04-30 12:33 | 51.64945 | 7.68075 | 6265 ft | 300 kts | 313° |
| 2026-04-30 12:33 | 51.66326 | 7.65561 | 7289 ft | 300 kts | 314° |
| 2026-04-30 12:33 | 51.67739 | 7.63062 | 8225 ft | 303 kts | 315° |
| 2026-04-30 12:33 | 51.69188 | 7.60579 | 9141 ft | 306 kts | 316° |
| 2026-04-30 12:34 | 51.70670 | 7.58100 | 10041 ft | 309 kts | 317° |
| 2026-04-30 12:34 | 51.72188 | 7.55592 | 10700 ft | 321 kts | 317° |
| 2026-04-30 12:34 | 51.73809 | 7.52936 | 10981 ft | 343 kts | 317° |
| 2026-04-30 12:34 | 51.75514 | 7.50143 | 11531 ft | 354 kts | 317° |
| 2026-04-30 12:35 | 51.77250 | 7.47292 | 12262 ft | 358 kts | 317° |
| 2026-04-30 12:35 | 51.79000 | 7.44409 | 13024 ft | 361 kts | 317° |
| 2026-04-30 12:35 | 51.80763 | 7.41499 | 13776 ft | 364 kts | 317° |
| 2026-04-30 12:35 | 51.82544 | 7.38556 | 14453 ft | 368 kts | 317° |
| 2026-04-30 12:36 | 51.84344 | 7.35577 | 15082 ft | 372 kts | 317° |
| 2026-04-30 12:36 | 51.86157 | 7.32567 | 15721 ft | 375 kts | 317° |
| 2026-04-30 12:36 | 51.87989 | 7.29522 | 16321 ft | 379 kts | 317° |
| 2026-04-30 12:36 | 51.89839 | 7.26443 | 16931 ft | 383 kts | 317° |
| 2026-04-30 12:37 | 51.91700 | 7.23330 | 17548 ft | 387 kts | 317° |
| 2026-04-30 12:37 | 51.93579 | 7.20185 | 18183 ft | 390 kts | 317° |
| 2026-04-30 12:37 | 51.95478 | 7.17013 | 18796 ft | 393 kts | 317° |
| 2026-04-30 12:37 | 51.97389 | 7.13820 | 19380 ft | 396 kts | 317° |
| 2026-04-30 12:38 | 51.99312 | 7.10598 | 19954 ft | 398 kts | 317° |
| 2026-04-30 12:38 | 52.01244 | 7.07358 | 20551 ft | 401 kts | 317° |
| 2026-04-30 12:38 | 52.03188 | 7.04096 | 21120 ft | 403 kts | 317° |
| 2026-04-30 12:38 | 52.05146 | 7.00808 | 21661 ft | 406 kts | 317° |
| 2026-04-30 12:39 | 52.06990 | 6.97301 | 22173 ft | 412 kts | 308° |
| 2026-04-30 12:39 | 52.08453 | 6.93269 | 22692 ft | 418 kts | 297° |
| 2026-04-30 12:39 | 52.09677 | 6.88966 | 23245 ft | 420 kts | 297° |
| 2026-04-30 12:39 | 52.10901 | 6.84645 | 23759 ft | 422 kts | 296° |
| 2026-04-30 12:40 | 52.12136 | 6.80294 | 24223 ft | 425 kts | 297° |
| 2026-04-30 12:40 | 52.13369 | 6.75921 | 24679 ft | 427 kts | 294° |
| 2026-04-30 12:40 | 52.14416 | 6.71376 | 25077 ft | 430 kts | 292° |
| 2026-04-30 12:40 | 52.15453 | 6.66796 | 25535 ft | 432 kts | 291° |
| 2026-04-30 12:41 | 52.16490 | 6.62189 | 25950 ft | 434 kts | 291° |
| 2026-04-30 12:41 | 52.17520 | 6.57562 | 26379 ft | 436 kts | 291° |
| 2026-04-30 12:41 | 52.18553 | 6.52883 | 26774 ft | 439 kts | 291° |
| 2026-04-30 12:41 | 52.19570 | 6.48248 | 27171 ft | 442 kts | 291° |
| 2026-04-30 12:42 | 52.20621 | 6.43457 | 27556 ft | 445 kts | 291° |
| 2026-04-30 12:42 | 52.21663 | 6.38695 | 27932 ft | 448 kts | 291° |
| 2026-04-30 12:42 | 52.22707 | 6.33905 | 28369 ft | 449 kts | 290° |
| 2026-04-30 12:42 | 52.23412 | 6.28931 | 28735 ft | 454 kts | 275° |
| 2026-04-30 12:43 | 52.23313 | 6.23786 | 29158 ft | 456 kts | 263° |
| 2026-04-30 12:43 | 52.22951 | 6.18709 | 29513 ft | 459 kts | 263° |
| 2026-04-30 12:43 | 52.22569 | 6.13523 | 29884 ft | 462 kts | 263° |
| 2026-04-30 12:43 | 52.22176 | 6.08319 | 30269 ft | 464 kts | 263° |
| 2026-04-30 12:44 | 52.21777 | 6.03092 | 30646 ft | 466 kts | 263° |
| 2026-04-30 12:44 | 52.21373 | 5.97833 | 30952 ft | 469 kts | 263° |
| 2026-04-30 12:44 | 52.20967 | 5.92539 | 31268 ft | 471 kts | 263° |
| 2026-04-30 12:44 | 52.20559 | 5.87233 | 31618 ft | 472 kts | 262° |
| 2026-04-30 12:45 | 52.20148 | 5.81920 | 32064 ft | 472 kts | 262° |
| 2026-04-30 12:45 | 52.19737 | 5.76620 | 32328 ft | 472 kts | 262° |
| 2026-04-30 12:45 | 52.18922 | 5.66239 | 32381 ft | 454 kts | 262° |
| 2026-04-30 12:46 | 52.18250 | 5.57783 | 32380 ft | 451 kts | 262° |
| 2026-04-30 12:46 | 52.17435 | 5.47663 | 32374 ft | 450 kts | 262° |
| 2026-04-30 12:47 | 52.16624 | 5.37550 | 32374 ft | 450 kts | 262° |
| 2026-04-30 12:47 | 52.15802 | 5.27452 | 32361 ft | 449 kts | 261° |
| 2026-04-30 12:48 | 52.14964 | 5.17363 | 32352 ft | 450 kts | 261° |
| 2026-04-30 12:48 | 52.14120 | 5.07263 | 32359 ft | 450 kts | 261° |
| 2026-04-30 12:49 | 52.13264 | 4.97164 | 32361 ft | 451 kts | 261° |
| 2026-04-30 12:49 | 52.12396 | 4.87067 | 32369 ft | 451 kts | 261° |
| 2026-04-30 12:50 | 52.11521 | 4.76969 | 32374 ft | 451 kts | 261° |
| 2026-04-30 12:50 | 52.10648 | 4.66870 | 32360 ft | 451 kts | 261° |
| 2026-04-30 12:51 | 52.09763 | 4.56782 | 32370 ft | 450 kts | 261° |
| 2026-04-30 12:51 | 52.08870 | 4.46698 | 32347 ft | 450 kts | 260° |
| 2026-04-30 12:52 | 52.07967 | 4.36629 | 32349 ft | 450 kts | 260° |
| 2026-04-30 12:52 | 52.07051 | 4.26566 | 32339 ft | 450 kts | 260° |
| 2026-04-30 12:53 | 52.06128 | 4.16502 | 32344 ft | 450 kts | 260° |
| 2026-04-30 12:53 | 52.05202 | 4.06446 | 32338 ft | 450 kts | 260° |
| 2026-04-30 12:54 | 52.04259 | 3.96324 | 32183 ft | 458 kts | 260° |
| 2026-04-30 12:54 | 52.03775 | 3.91184 | 31891 ft | 462 kts | 260° |
| 2026-04-30 12:54 | 52.03291 | 3.86046 | 31619 ft | 459 kts | 260° |
| 2026-04-30 12:55 | 52.02806 | 3.80937 | 31344 ft | 457 kts | 260° |
| 2026-04-30 12:55 | 52.02320 | 3.75852 | 31068 ft | 455 kts | 259° |
| 2026-04-30 12:55 | 52.01833 | 3.70792 | 30801 ft | 453 kts | 259° |
| 2026-04-30 12:55 | 52.01346 | 3.65758 | 30533 ft | 451 kts | 259° |
| 2026-04-30 12:56 | 52.00859 | 3.60735 | 30245 ft | 449 kts | 259° |
| 2026-04-30 12:56 | 52.00374 | 3.55743 | 29937 ft | 447 kts | 259° |
| 2026-04-30 12:56 | 51.99890 | 3.50767 | 29619 ft | 445 kts | 259° |
| 2026-04-30 12:56 | 51.99407 | 3.45815 | 29317 ft | 443 kts | 259° |
| 2026-04-30 12:57 | 51.98921 | 3.40874 | 29023 ft | 443 kts | 259° |
| 2026-04-30 12:57 | 51.98434 | 3.35950 | 28727 ft | 441 kts | 259° |
| 2026-04-30 12:57 | 51.97948 | 3.31053 | 28426 ft | 439 kts | 259° |
| 2026-04-30 12:57 | 51.97458 | 3.26172 | 28133 ft | 437 kts | 259° |
| 2026-04-30 12:58 | 51.96971 | 3.21318 | 27842 ft | 435 kts | 259° |
| 2026-04-30 12:58 | 51.96487 | 3.16480 | 27555 ft | 434 kts | 260° |
| 2026-04-30 12:58 | 51.96081 | 3.11647 | 27260 ft | 432 kts | 262° |
| 2026-04-30 12:58 | 51.95756 | 3.06803 | 26969 ft | 431 kts | 263° |
| 2026-04-30 12:59 | 51.95479 | 3.01978 | 26691 ft | 429 kts | 263° |
| 2026-04-30 12:59 | 51.95213 | 2.97165 | 26414 ft | 428 kts | 263° |
| 2026-04-30 12:59 | 51.94939 | 2.92393 | 26134 ft | 421 kts | 263° |
| 2026-04-30 12:59 | 51.94653 | 2.87719 | 25846 ft | 413 kts | 262° |
| 2026-04-30 13:00 | 51.94356 | 2.83133 | 25553 ft | 406 kts | 262° |
| 2026-04-30 13:00 | 51.94051 | 2.78606 | 25262 ft | 402 kts | 262° |
| 2026-04-30 13:00 | 51.93740 | 2.74118 | 24978 ft | 400 kts | 262° |
| 2026-04-30 13:00 | 51.93428 | 2.69649 | 24696 ft | 398 kts | 262° |
| 2026-04-30 13:01 | 51.93117 | 2.65195 | 24414 ft | 397 kts | 262° |
| 2026-04-30 13:01 | 51.92812 | 2.60819 | 24140 ft | 395 kts | 262° |
| 2026-04-30 13:01 | 51.92506 | 2.56396 | 23859 ft | 394 kts | 262° |
| 2026-04-30 13:01 | 51.92204 | 2.51999 | 23535 ft | 392 kts | 262° |
| 2026-04-30 13:02 | 51.91902 | 2.47620 | 23206 ft | 390 kts | 262° |
| 2026-04-30 13:02 | 51.91599 | 2.43260 | 22894 ft | 388 kts | 262° |
| 2026-04-30 13:02 | 51.91289 | 2.38869 | 22572 ft | 386 kts | 262° |
| 2026-04-30 13:02 | 51.90983 | 2.34560 | 22257 ft | 384 kts | 262° |
| 2026-04-30 13:03 | 51.90710 | 2.30263 | 21943 ft | 383 kts | 264° |
| 2026-04-30 13:03 | 51.90549 | 2.25969 | 21636 ft | 381 kts | 266° |
| 2026-04-30 13:03 | 51.90460 | 2.21688 | 21330 ft | 380 kts | 267° |
| 2026-04-30 13:03 | 51.90400 | 2.17426 | 21029 ft | 378 kts | 267° |
| 2026-04-30 13:04 | 51.90340 | 2.13176 | 20729 ft | 376 kts | 267° |
| 2026-04-30 13:04 | 51.90268 | 2.08949 | 20433 ft | 374 kts | 266° |
| 2026-04-30 13:04 | 51.90180 | 2.04744 | 20140 ft | 373 kts | 266° |
| 2026-04-30 13:04 | 51.90082 | 2.00564 | 19851 ft | 371 kts | 266° |
| 2026-04-30 13:05 | 51.89979 | 1.96398 | 19565 ft | 370 kts | 265° |
| 2026-04-30 13:05 | 51.90061 | 1.92302 | 19287 ft | 370 kts | 276° |
| 2026-04-30 13:05 | 51.90722 | 1.88225 | 19064 ft | 371 kts | 291° |
| 2026-04-30 13:06 | 51.93533 | 1.81333 | 18743 ft | 371 kts | 310° |
| 2026-04-30 13:06 | 51.95196 | 1.78140 | 18582 ft | 371 kts | 310° |
| 2026-04-30 13:06 | 51.96852 | 1.74937 | 18388 ft | 370 kts | 309° |
| 2026-04-30 13:06 | 51.98498 | 1.71739 | 18205 ft | 369 kts | 309° |
| 2026-04-30 13:07 | 52.00139 | 1.68542 | 18025 ft | 368 kts | 309° |
| 2026-04-30 13:07 | 52.01777 | 1.65353 | 17840 ft | 367 kts | 309° |
| 2026-04-30 13:07 | 52.03411 | 1.62172 | 17651 ft | 366 kts | 309° |
| 2026-04-30 13:07 | 52.05039 | 1.59001 | 17464 ft | 365 kts | 310° |
| 2026-04-30 13:08 | 52.06664 | 1.55829 | 17272 ft | 365 kts | 309° |
| 2026-04-30 13:08 | 52.08280 | 1.52667 | 17098 ft | 364 kts | 309° |
| 2026-04-30 13:08 | 52.09892 | 1.49506 | 16923 ft | 363 kts | 309° |
| 2026-04-30 13:08 | 52.11501 | 1.46350 | 16750 ft | 362 kts | 309° |
| 2026-04-30 13:09 | 52.13109 | 1.43196 | 16570 ft | 363 kts | 309° |
| 2026-04-30 13:09 | 52.14679 | 1.39989 | 16398 ft | 361 kts | 303° |
| 2026-04-30 13:09 | 52.15867 | 1.36419 | 16217 ft | 357 kts | 290° |
| 2026-04-30 13:09 | 52.16571 | 1.32558 | 16045 ft | 355 kts | 278° |
| 2026-04-30 13:10 | 52.16902 | 1.28578 | 15872 ft | 354 kts | 275° |
| 2026-04-30 13:10 | 52.17210 | 1.24605 | 15691 ft | 353 kts | 275° |
| 2026-04-30 13:10 | 52.17522 | 1.20651 | 15472 ft | 352 kts | 275° |
| 2026-04-30 13:10 | 52.17836 | 1.16698 | 15252 ft | 351 kts | 275° |
| 2026-04-30 13:11 | 52.18147 | 1.12771 | 15037 ft | 349 kts | 275° |
| 2026-04-30 13:11 | 52.18456 | 1.08845 | 14825 ft | 349 kts | 275° |
| 2026-04-30 13:11 | 52.18762 | 1.04920 | 14616 ft | 348 kts | 275° |
| 2026-04-30 13:11 | 52.19065 | 1.01009 | 14399 ft | 348 kts | 275° |
| 2026-04-30 13:12 | 52.19368 | 0.97098 | 14195 ft | 347 kts | 275° |
| 2026-04-30 13:12 | 52.19669 | 0.93209 | 13950 ft | 345 kts | 274° |
| 2026-04-30 13:12 | 52.19966 | 0.89325 | 13714 ft | 344 kts | 274° |
| 2026-04-30 13:13 | 52.20549 | 0.81607 | 13256 ft | 342 kts | 274° |
| 2026-04-30 13:13 | 52.20839 | 0.77765 | 13006 ft | 341 kts | 274° |
| 2026-04-30 13:13 | 52.21405 | 0.70114 | 12547 ft | 338 kts | 274° |
| 2026-04-30 13:14 | 52.21684 | 0.66354 | 12324 ft | 330 kts | 274° |
| 2026-04-30 13:14 | 52.21958 | 0.62672 | 12098 ft | 324 kts | 274° |
| 2026-04-30 13:14 | 52.22490 | 0.55455 | 11653 ft | 319 kts | 274° |
| 2026-04-30 13:15 | 52.22752 | 0.51870 | 11433 ft | 318 kts | 274° |
| 2026-04-30 13:15 | 52.23030 | 0.44677 | 11005 ft | 321 kts | 255° |
| 2026-04-30 13:15 | 52.22468 | 0.41162 | 10793 ft | 320 kts | 249° |
| 2026-04-30 13:16 | 52.21816 | 0.37697 | 10573 ft | 320 kts | 248° |
| 2026-04-30 13:16 | 52.21161 | 0.34252 | 10353 ft | 315 kts | 248° |
| 2026-04-30 13:16 | 52.20521 | 0.30874 | 10148 ft | 308 kts | 248° |
| 2026-04-30 13:17 | 52.19283 | 0.24304 | 9795 ft | 301 kts | 248° |
| 2026-04-30 13:17 | 52.18675 | 0.21047 | 9655 ft | 300 kts | 248° |
| 2026-04-30 13:17 | 52.17664 | 0.15647 | 9449 ft | 299 kts | 248° |
| 2026-04-30 13:18 | 52.16855 | 0.11315 | 9276 ft | 298 kts | 248° |
| 2026-04-30 13:18 | 52.15494 | 0.04969 | 9026 ft | 296 kts | 244° |
| 2026-04-30 13:18 | 52.14763 | 0.01842 | 8881 ft | 295 kts | 244° |
| 2026-04-30 13:19 | 52.14034 | -0.01272 | 8642 ft | 294 kts | 244° |
| 2026-04-30 13:19 | 52.13315 | -0.04371 | 8382 ft | 292 kts | 244° |
| 2026-04-30 13:19 | 52.12599 | -0.07446 | 8074 ft | 289 kts | 244° |
| 2026-04-30 13:19 | 52.11886 | -0.10497 | 7785 ft | 288 kts | 244° |
| 2026-04-30 13:20 | 52.11181 | -0.13534 | 7490 ft | 286 kts | 244° |
| 2026-04-30 13:20 | 52.10480 | -0.16559 | 7187 ft | 285 kts | 244° |
| 2026-04-30 13:20 | 52.09788 | -0.19559 | 6909 ft | 283 kts | 244° |
| 2026-04-30 13:20 | 52.09100 | -0.22542 | 6619 ft | 281 kts | 244° |
| 2026-04-30 13:21 | 52.08417 | -0.25510 | 6314 ft | 279 kts | 244° |
| 2026-04-30 13:21 | 52.07741 | -0.28461 | 6002 ft | 278 kts | 244° |
| 2026-04-30 13:21 | 52.07070 | -0.31396 | 5699 ft | 276 kts | 244° |
| 2026-04-30 13:22 | 52.05337 | -0.36836 | 5163 ft | 269 kts | 233° |
| 2026-04-30 13:22 | 52.04379 | -0.39437 | 4916 ft | 268 kts | 233° |
| 2026-04-30 13:22 | 52.02487 | -0.44626 | 4396 ft | 265 kts | 233° |
| 2026-04-30 13:23 | 52.01392 | -0.46943 | 4151 ft | 252 kts | 213° |
| 2026-04-30 13:23 | 51.98593 | -0.50159 | 3641 ft | 243 kts | 207° |
| 2026-04-30 13:24 | 51.95846 | -0.53189 | 3220 ft | 235 kts | 207° |
| 2026-04-30 13:24 | 51.93174 | -0.56092 | 2810 ft | 227 kts | 207° |
| 2026-04-30 13:25 | 51.90450 | -0.58311 | 2399 ft | 213 kts | 192° |
| 2026-04-30 13:25 | 51.87671 | -0.59192 | 2062 ft | 197 kts | 175° |
| 2026-04-30 13:26 | 51.84417 | -0.56986 | 2010 ft | 169 kts | 112° |
| 2026-04-30 13:26 | 51.84571 | -0.53457 | 2013 ft | 147 kts | 77° |
| 2026-04-30 13:27 | 51.85092 | -0.50492 | 1983 ft | 133 kts | 79° |
| 2026-04-30 13:28 | 51.85753 | -0.46700 | 1625 ft | 130 kts | 80° |
| 2026-04-30 13:28 | 51.86242 | -0.43890 | 1282 ft | 130 kts | 79° |
| 2026-04-30 13:28 | 51.86487 | -0.42480 | 1096 ft | 130 kts | 77° |
| 2026-04-30 13:29 | 51.86978 | -0.39655 | 724 ft | 129 kts | 80° |
| 2026-04-30 13:29 | 51.87456 | -0.36952 | 525 ft | 113 kts | 82° |
| 2026-04-30 13:30 | 51.87716 | -0.35946 | 516 ft | 2 kts | 343° |
| 2026-04-30 13:31 | 51.87777 | -0.36009 | 517 ft | 7 kts | 303° |
| 2026-04-30 13:31 | 51.87745 | -0.36306 | 518 ft | 13 kts | 256° |
| 2026-04-30 13:32 | 51.87687 | -0.36623 | 521 ft | 15 kts | 254° |
| 2026-04-30 13:32 | 51.87641 | -0.36922 | 526 ft | 9 kts | 282° |
| 2026-04-30 13:33 | 51.87772 | -0.37001 | 517 ft | 10 kts | 333° |
| 2026-04-30 13:33 | 51.87758 | -0.37125 | 516 ft | 0 kts | 252° |